createdAt,value
2022-12-31T00:02:07.130Z,18.14
2022-12-31T00:04:36.131Z,18.27
2022-12-31T00:07:03.587Z,18.88
2022-12-31T00:09:31.365Z,18.42
2022-12-31T00:11:59.460Z,18.35
2022-12-31T00:14:26.936Z,18.22
2022-12-31T00:16:54.412Z,19.13
2022-12-31T00:19:21.916Z,18.25
2022-12-31T00:21:50.836Z,18.79
2022-12-31T00:24:18.727Z,18.36
2022-12-31T00:26:46.179Z,18.86
2022-12-31T00:29:13.628Z,18.04
2022-12-31T00:31:41.118Z,18.05
2022-12-31T00:34:09.963Z,17.57
2022-12-31T00:36:39.262Z,18.16
2022-12-31T00:39:10.039Z,17.97
2022-12-31T00:41:38.305Z,17.96
2022-12-31T00:44:06.178Z,18.08
2022-12-31T00:49:01.317Z,18.27
2022-12-31T00:51:29.039Z,18.34
2022-12-31T00:53:57.239Z,18.73
2022-12-31T00:56:29.041Z,18.98
2022-12-31T00:58:57.095Z,19.13
2022-12-31T01:01:27.239Z,18.75
2022-12-31T01:03:56.492Z,18.91
2022-12-31T01:06:24.453Z,18.67
2022-12-31T01:08:53.167Z,18.44
2022-12-31T01:11:20.944Z,18.41
2022-12-31T01:13:52.349Z,19.06
2022-12-31T01:16:22.639Z,18.92
2022-12-31T01:18:50.602Z,18.39
2022-12-31T01:21:19.450Z,18.68
2022-12-31T01:23:47.899Z,18.01
2022-12-31T01:26:17.414Z,19.20
2022-12-31T01:28:45.297Z,18.21
2022-12-31T01:31:16.590Z,18.52
2022-12-31T01:33:44.602Z,18.38
2022-12-31T01:36:14.118Z,17.50
2022-12-31T01:38:42.487Z,18.78
2022-12-31T01:41:13.379Z,17.61
2022-12-31T01:43:47.297Z,18.77
2022-12-31T01:46:23.762Z,18.45
2022-12-31T01:48:56.732Z,18.67
2022-12-31T01:51:26.030Z,17.33
2022-12-31T01:53:54.530Z,18.03
2022-12-31T01:56:23.890Z,18.06
2022-12-31T01:58:54.636Z,17.72
2022-12-31T02:01:28.079Z,17.55
2022-12-31T02:04:04.292Z,17.33
2022-12-31T02:06:36.643Z,17.66
2022-12-31T02:09:04.801Z,17.54
2022-12-31T02:11:34.503Z,17.38
2022-12-31T02:14:05.181Z,17.79
2022-12-31T02:16:40.995Z,17.87
2022-12-31T02:19:32.365Z,18.25
2022-12-31T02:22:09.243Z,17.57
2022-12-31T02:25:14.128Z,17.03
2022-12-31T02:27:52.323Z,17.73
2022-12-31T02:30:23.449Z,18.83
2022-12-31T02:32:59.180Z,17.50
2022-12-31T02:35:30.654Z,18.39
2022-12-31T02:38:04.268Z,16.50
2022-12-31T02:40:35.083Z,17.07
2022-12-31T02:43:02.623Z,16.48
2022-12-31T02:45:38.299Z,16.22
2022-12-31T02:48:15.693Z,16.35
2022-12-31T02:50:53.036Z,16.67
2022-12-31T02:53:39.539Z,16.04
2022-12-31T02:56:12.760Z,16.16
2022-12-31T02:58:48.798Z,16.57
2022-12-31T03:01:25.791Z,16.86
2022-12-31T03:03:53.510Z,16.87
2022-12-31T03:06:21.047Z,16.90
2022-12-31T03:08:48.456Z,17.16
2022-12-31T03:11:16.101Z,16.37
2022-12-31T03:13:43.784Z,17.37
2022-12-31T03:16:11.347Z,16.91
2022-12-31T03:18:40.350Z,17.31
2022-12-31T03:21:13.240Z,16.70
2022-12-31T03:23:43.546Z,17.34
2022-12-31T03:26:12.376Z,17.15
2022-12-31T03:28:41.881Z,17.15
2022-12-31T03:31:10.496Z,16.55
2022-12-31T03:33:41.971Z,16.62
2022-12-31T03:36:11.868Z,16.16
2022-12-31T03:38:39.585Z,16.30
2022-12-31T03:41:09.675Z,16.81
2022-12-31T03:43:37.754Z,16.95
2022-12-31T03:46:05.621Z,16.75
2022-12-31T03:48:33.222Z,16.42
2022-12-31T03:51:02.777Z,16.94
2022-12-31T03:53:30.275Z,17.31
2022-12-31T03:55:57.855Z,17.35
2022-12-31T03:58:25.407Z,16.75
2022-12-31T04:00:53.484Z,17.12
2022-12-31T04:03:21.070Z,16.92
2022-12-31T04:05:53.879Z,16.69
2022-12-31T04:08:24.177Z,16.89
2022-12-31T04:10:51.785Z,17.39
2022-12-31T04:13:19.347Z,17.41
2022-12-31T04:15:50.460Z,16.75
2022-12-31T04:18:17.911Z,16.69
2022-12-31T04:20:45.387Z,16.40
2022-12-31T04:23:13.061Z,17.29
2022-12-31T04:25:42.071Z,16.75
2022-12-31T04:28:11.759Z,17.16
2022-12-31T04:30:40.175Z,17.67
2022-12-31T04:33:07.787Z,17.51
2022-12-31T04:35:35.484Z,17.54
2022-12-31T04:38:03.013Z,17.35
2022-12-31T04:40:30.592Z,16.69
2022-12-31T04:42:59.639Z,16.84
2022-12-31T04:45:27.316Z,17.59
2022-12-31T04:47:54.903Z,16.82
2022-12-31T04:50:22.427Z,17.18
2022-12-31T04:52:49.989Z,17.50
2022-12-31T04:55:18.148Z,17.73
2022-12-31T04:57:45.615Z,17.69
2022-12-31T05:00:15.859Z,18.00
2022-12-31T05:02:43.493Z,17.60
2022-12-31T05:05:11.082Z,17.03
2022-12-31T05:07:38.564Z,17.85
2022-12-31T05:10:07.203Z,17.36
2022-12-31T05:12:34.886Z,17.06
2022-12-31T05:15:02.433Z,17.64
2022-12-31T05:17:31.471Z,17.77
2022-12-31T05:19:59.018Z,16.90
2022-12-31T05:22:26.621Z,16.97
2022-12-31T05:24:54.576Z,17.14
2022-12-31T05:27:22.284Z,16.43
2022-12-31T05:29:49.798Z,16.37
2022-12-31T05:32:17.655Z,16.03
2022-12-31T05:34:46.547Z,15.99
2022-12-31T05:37:14.117Z,17.12
2022-12-31T05:39:42.548Z,16.75
2022-12-31T05:42:10.021Z,16.77
2022-12-31T05:44:37.610Z,16.70
2022-12-31T05:47:05.650Z,16.32
2022-12-31T05:49:33.127Z,16.19
2022-12-31T05:52:02.350Z,16.85
2022-12-31T05:54:29.888Z,16.35
2022-12-31T05:56:57.376Z,17.08
2022-12-31T05:59:25.192Z,17.43
2022-12-31T06:01:53.060Z,16.88
2022-12-31T06:04:20.843Z,16.84
2022-12-31T06:06:49.025Z,17.25
2022-12-31T06:09:19.030Z,17.73
2022-12-31T06:11:47.045Z,17.20
2022-12-31T06:14:15.111Z,17.40
2022-12-31T06:16:42.859Z,17.52
2022-12-31T06:19:10.366Z,17.63
2022-12-31T06:21:37.951Z,17.47
2022-12-31T06:24:06.246Z,17.19
2022-12-31T06:26:35.382Z,17.30
2022-12-31T06:29:02.925Z,16.99
2022-12-31T06:31:30.802Z,17.06
2022-12-31T06:33:58.552Z,16.89
2022-12-31T06:36:26.878Z,16.88
2022-12-31T06:38:54.634Z,16.88
2022-12-31T06:41:22.791Z,17.85
2022-12-31T06:43:52.564Z,16.98
2022-12-31T06:46:20.212Z,18.09
2022-12-31T06:48:47.956Z,17.65
2022-12-31T06:51:17.790Z,18.41
2022-12-31T06:53:45.942Z,17.39
2022-12-31T06:56:16.123Z,17.69
2022-12-31T06:58:44.497Z,18.45
2022-12-31T07:01:28.958Z,17.73
2022-12-31T07:04:03.574Z,18.24
2022-12-31T07:06:37.507Z,17.54
2022-12-31T07:09:11.397Z,17.82
2022-12-31T07:11:46.907Z,17.79
2022-12-31T07:14:26.083Z,17.63
2022-12-31T07:17:09.429Z,17.79
2022-12-31T07:19:51.129Z,17.93
2022-12-31T07:22:23.481Z,18.04
2022-12-31T07:24:51.600Z,17.79
2022-12-31T07:27:44.976Z,17.46
2022-12-31T07:30:15.157Z,17.45
2022-12-31T07:33:08.206Z,17.16
2022-12-31T07:35:45.104Z,17.78
2022-12-31T07:38:22.664Z,16.92
2022-12-31T07:41:07.264Z,17.69
2022-12-31T07:43:46.279Z,17.52
2022-12-31T07:46:19.621Z,17.27
2022-12-31T07:48:49.476Z,17.54
2022-12-31T07:51:17.617Z,18.27
2022-12-31T07:53:45.129Z,18.07
2022-12-31T07:56:13.891Z,18.17
2022-12-31T07:58:57.308Z,17.01
2022-12-31T08:01:33.957Z,18.40
2022-12-31T08:04:08.731Z,17.56
2022-12-31T08:06:45.507Z,17.62
2022-12-31T08:09:27.178Z,17.20
2022-12-31T08:11:58.081Z,17.38
2022-12-31T08:14:27.099Z,17.79
2022-12-31T08:16:55.681Z,18.05
2022-12-31T08:19:28.043Z,17.65
2022-12-31T08:22:14.079Z,17.43
2022-12-31T08:24:53.522Z,18.05
2022-12-31T08:27:28.555Z,17.88
2022-12-31T08:30:02.237Z,18.37
2022-12-31T08:32:36.042Z,17.74
2022-12-31T08:35:15.891Z,17.83
2022-12-31T08:37:48.400Z,18.31
2022-12-31T08:40:24.915Z,18.10
2022-12-31T08:43:10.564Z,18.04
2022-12-31T08:45:42.026Z,18.15
2022-12-31T08:48:20.264Z,18.32
2022-12-31T08:50:49.865Z,18.25
2022-12-31T08:53:18.262Z,18.36
2022-12-31T08:55:48.728Z,18.26
2022-12-31T08:58:29.466Z,18.30
2022-12-31T09:00:58.955Z,18.21
2022-12-31T09:03:50.049Z,18.23
2022-12-31T09:06:26.173Z,18.73
2022-12-31T09:09:03.649Z,17.70
2022-12-31T09:11:37.985Z,17.92
2022-12-31T09:14:18.449Z,18.06
2022-12-31T09:16:54.214Z,18.22
2022-12-31T09:19:22.375Z,18.24
2022-12-31T09:21:52.196Z,18.61
2022-12-31T09:24:20.287Z,18.56
2022-12-31T09:26:57.989Z,18.44
2022-12-31T09:29:37.844Z,18.32
2022-12-31T09:32:14.433Z,18.08
2022-12-31T09:34:50.047Z,18.16
2022-12-31T09:37:26.556Z,17.46
2022-12-31T09:39:57.975Z,18.46
2022-12-31T09:42:52.648Z,18.17
2022-12-31T09:45:39.259Z,17.89
2022-12-31T09:48:43.465Z,18.10
2022-12-31T09:51:26.613Z,18.00
2022-12-31T09:54:23.948Z,18.29
2022-12-31T09:57:13.823Z,18.25
2022-12-31T09:59:52.126Z,18.13
2022-12-31T10:02:35.406Z,17.92
2022-12-31T10:05:27.168Z,18.57
2022-12-31T10:08:04.572Z,18.34
2022-12-31T10:10:42.436Z,17.95
2022-12-31T10:13:36.948Z,17.85
2022-12-31T10:16:31.232Z,18.25
2022-12-31T10:19:45.539Z,17.50
2022-12-31T10:22:39.901Z,17.53
2022-12-31T10:25:37.905Z,18.17
2022-12-31T10:28:24.337Z,18.04
2022-12-31T10:31:03.365Z,17.52
2022-12-31T10:33:42.848Z,18.25
2022-12-31T10:36:20.169Z,17.46
2022-12-31T10:39:03.038Z,17.98
2022-12-31T10:42:07.752Z,17.99
2022-12-31T10:45:10.801Z,17.33
2022-12-31T10:48:23.739Z,18.22
2022-12-31T10:51:16.849Z,18.17
2022-12-31T10:54:15.849Z,17.82
2022-12-31T10:57:17.864Z,17.66
2022-12-31T11:00:10.630Z,18.14
2022-12-31T11:03:32.398Z,17.95
2022-12-31T11:06:36.369Z,18.46
2022-12-31T11:09:38.205Z,17.71
2022-12-31T11:12:22.038Z,17.83
2022-12-31T11:15:12.050Z,17.34
2022-12-31T11:17:49.140Z,18.38
2022-12-31T11:20:42.724Z,17.52
2022-12-31T11:23:26.280Z,17.20
2022-12-31T11:26:05.299Z,17.67
2022-12-31T11:28:55.744Z,18.08
2022-12-31T11:31:44.605Z,18.46
2022-12-31T11:34:33.646Z,18.31
2022-12-31T11:37:18.527Z,17.84
2022-12-31T11:39:54.381Z,17.84
2022-12-31T11:42:27.158Z,17.71
2022-12-31T11:45:01.328Z,17.97
2022-12-31T11:48:28.715Z,17.09
2022-12-31T11:50:50.578Z,17.78
2022-12-31T11:53:54.050Z,17.09
2022-12-31T11:56:25.416Z,17.67
2022-12-31T11:58:55.633Z,17.73
2022-12-31T12:01:27.280Z,17.74
2022-12-31T12:03:54.853Z,17.45
2022-12-31T12:06:27.504Z,17.59
2022-12-31T12:09:02.819Z,17.80
2022-12-31T12:11:33.169Z,17.89
2022-12-31T12:14:01.085Z,18.24
2022-12-31T12:16:28.998Z,17.55
2022-12-31T12:19:04.875Z,17.54
2022-12-31T12:21:32.727Z,17.32
2022-12-31T12:24:03.978Z,17.88
2022-12-31T12:26:35.960Z,17.41
2022-12-31T12:29:11.248Z,17.54
2022-12-31T12:31:39.577Z,17.98
2022-12-31T12:34:22.644Z,17.33
2022-12-31T12:36:50.327Z,18.10
2022-12-31T12:39:23.538Z,17.66
2022-12-31T12:42:02.339Z,18.08
2022-12-31T12:44:30.779Z,17.87
2022-12-31T12:46:58.882Z,17.57
2022-12-31T12:49:29.746Z,17.36
2022-12-31T12:52:27.297Z,17.84
2022-12-31T12:55:16.436Z,17.34
2022-12-31T12:57:49.708Z,17.50
2022-12-31T13:00:19.976Z,18.06
2022-12-31T13:03:36.619Z,17.43
2022-12-31T13:06:21.260Z,17.48
2022-12-31T13:09:03.083Z,17.81
2022-12-31T13:11:40.479Z,17.18
2022-12-31T13:14:18.607Z,16.95
2022-12-31T13:16:55.589Z,17.59
2022-12-31T13:19:31.435Z,17.46
2022-12-31T13:22:05.010Z,17.30
2022-12-31T13:24:46.965Z,17.65
2022-12-31T13:27:23.749Z,17.51
2022-12-31T13:29:54.991Z,17.89
2022-12-31T13:32:34.416Z,17.54
2022-12-31T13:35:19.186Z,17.50
2022-12-31T13:37:48.259Z,17.51
2022-12-31T13:40:21.317Z,17.85
2022-12-31T13:42:57.373Z,17.25
2022-12-31T13:45:28.853Z,17.96
2022-12-31T13:48:00.350Z,17.42
2022-12-31T13:50:34.468Z,17.49
2022-12-31T13:53:09.737Z,17.63
2022-12-31T13:55:41.823Z,17.64
2022-12-31T13:58:23.385Z,17.49
2022-12-31T14:00:57.433Z,17.64
2022-12-31T14:03:31.220Z,17.61
2022-12-31T14:06:08.457Z,17.19
2022-12-31T14:08:36.117Z,17.69
2022-12-31T14:11:11.538Z,17.32
2022-12-31T14:13:52.680Z,17.56
2022-12-31T14:16:28.396Z,17.47
2022-12-31T14:19:05.214Z,17.70
2022-12-31T14:21:39.989Z,17.28
2022-12-31T14:24:13.535Z,17.80
2022-12-31T14:26:45.101Z,17.39
2022-12-31T14:29:29.586Z,17.03
2022-12-31T14:32:23.790Z,17.52
2022-12-31T14:35:01.606Z,17.79
2022-12-31T14:37:37.920Z,17.56
2022-12-31T14:40:18.239Z,17.55
2022-12-31T14:42:56.527Z,17.46
2022-12-31T14:45:43.966Z,17.36
2022-12-31T14:48:22.608Z,17.43
2022-12-31T14:50:50.827Z,17.41
2022-12-31T14:53:23.083Z,17.75
2022-12-31T14:55:59.200Z,17.63
2022-12-31T14:58:33.059Z,17.51
2022-12-31T15:01:03.735Z,17.29
2022-12-31T15:03:42.951Z,17.47
2022-12-31T15:06:37.996Z,17.01
2022-12-31T15:09:16.120Z,17.10
2022-12-31T15:12:04.826Z,17.39
2022-12-31T15:14:49.746Z,17.37
2022-12-31T15:17:33.603Z,17.39
2022-12-31T15:20:23.571Z,18.10
2022-12-31T15:22:53.085Z,17.34
2022-12-31T15:25:24.439Z,17.32
2022-12-31T15:27:53.334Z,17.11
2022-12-31T15:30:40.126Z,17.12
2022-12-31T15:33:19.422Z,17.83
2022-12-31T15:35:50.453Z,17.11
2022-12-31T15:38:30.413Z,17.00
2022-12-31T15:40:59.577Z,17.34
2022-12-31T15:43:39.886Z,17.34
2022-12-31T15:46:15.365Z,17.41
2022-12-31T15:48:51.661Z,17.05
2022-12-31T15:51:24.028Z,17.15
2022-12-31T15:53:54.531Z,17.21
2022-12-31T15:56:31.332Z,16.88
2022-12-31T15:59:01.932Z,17.06
2022-12-31T16:01:32.770Z,16.64
2022-12-31T16:04:04.731Z,17.49
2022-12-31T16:06:36.086Z,17.19
2022-12-31T16:09:06.521Z,17.03
2022-12-31T16:11:38.483Z,16.99
2022-12-31T16:14:06.046Z,17.00
2022-12-31T16:16:34.096Z,17.35
2022-12-31T16:19:03.108Z,17.00
2022-12-31T16:21:33.164Z,17.43
2022-12-31T16:24:02.220Z,16.75
2022-12-31T16:26:34.164Z,17.38
2022-12-31T16:29:02.491Z,17.44
2022-12-31T16:31:30.595Z,17.30
2022-12-31T16:34:11.792Z,17.19
2022-12-31T16:36:39.340Z,17.88
2022-12-31T16:39:24.545Z,17.42
2022-12-31T16:42:07.245Z,17.02
2022-12-31T16:44:35.040Z,17.60
2022-12-31T16:47:03.907Z,17.20
2022-12-31T16:49:35.695Z,17.15
2022-12-31T16:52:05.884Z,18.05
2022-12-31T16:54:37.184Z,17.40
2022-12-31T16:57:05.330Z,18.29
2022-12-31T16:59:38.073Z,17.55
2022-12-31T17:02:14.317Z,17.91
2022-12-31T17:04:55.151Z,17.67
2022-12-31T17:07:38.535Z,18.22
2022-12-31T17:10:18.556Z,17.28
2022-12-31T17:13:25.357Z,17.56
2022-12-31T17:15:40.785Z,17.19
2022-12-31T17:18:14.911Z,18.51
2022-12-31T17:20:44.049Z,17.71
2022-12-31T17:23:22.811Z,17.72
2022-12-31T17:25:58.212Z,18.17
2022-12-31T17:28:26.839Z,17.64
2022-12-31T17:30:58.675Z,17.59
2022-12-31T17:33:35.260Z,17.27
2022-12-31T17:36:22.755Z,17.59
2022-12-31T17:38:50.627Z,17.65
2022-12-31T17:41:25.207Z,17.78
2022-12-31T17:43:55.994Z,17.63
2022-12-31T17:46:25.591Z,17.52
2022-12-31T17:48:56.486Z,17.64
2022-12-31T17:51:25.409Z,17.52
2022-12-31T17:53:52.964Z,18.07
2022-12-31T17:56:20.807Z,17.54
2022-12-31T17:58:51.162Z,17.68
2022-12-31T18:01:21.383Z,17.75
2022-12-31T18:03:49.395Z,17.28
2022-12-31T18:06:17.368Z,17.48
2022-12-31T18:08:47.373Z,18.03
2022-12-31T18:11:17.182Z,17.45
2022-12-31T18:13:44.375Z,17.31
2022-12-31T18:16:12.030Z,17.54
2022-12-31T18:18:39.696Z,17.75
2022-12-31T18:21:13.595Z,17.34
2022-12-31T18:23:44.228Z,17.26
2022-12-31T18:26:14.370Z,17.68
2022-12-31T18:28:41.836Z,17.29
2022-12-31T18:31:16.587Z,17.58
2022-12-31T18:33:44.820Z,17.84
2022-12-31T18:36:13.507Z,17.74
2022-12-31T18:38:41.750Z,17.71
2022-12-31T18:41:18.714Z,18.40
2022-12-31T18:43:46.577Z,17.38
2022-12-31T18:46:15.647Z,17.45
2022-12-31T18:48:43.359Z,17.59
2022-12-31T18:51:13.765Z,17.52
2022-12-31T18:53:41.425Z,17.81
2022-12-31T18:56:11.586Z,17.92
2022-12-31T18:58:41.215Z,17.29
2022-12-31T19:01:24.808Z,17.42
2022-12-31T19:03:52.339Z,17.13
2022-12-31T19:06:20.050Z,17.22
2022-12-31T19:08:47.714Z,17.38
2022-12-31T19:11:15.834Z,17.27
2022-12-31T19:13:45.796Z,17.85
2022-12-31T19:16:13.652Z,17.78
2022-12-31T19:18:41.441Z,17.36
2022-12-31T19:21:17.800Z,17.98
2022-12-31T19:23:45.987Z,17.14
2022-12-31T19:26:15.670Z,17.35
2022-12-31T19:28:45.242Z,17.50
2022-12-31T19:31:12.856Z,17.29
2022-12-31T19:33:40.555Z,17.72
2022-12-31T19:36:15.087Z,17.21
2022-12-31T19:38:43.370Z,17.03
2022-12-31T19:41:15.626Z,16.94
2022-12-31T19:43:44.910Z,17.45
2022-12-31T19:46:13.891Z,17.46
2022-12-31T19:48:43.017Z,17.28
2022-12-31T19:51:12.585Z,17.46
2022-12-31T19:53:40.127Z,17.60
2022-12-31T19:56:12.540Z,17.17
2022-12-31T19:58:40.037Z,17.54
2022-12-31T20:01:14.379Z,17.38
2022-12-31T20:03:41.950Z,17.49
2022-12-31T20:06:10.734Z,17.12
2022-12-31T20:08:39.537Z,17.07
2022-12-31T20:11:11.292Z,17.60
2022-12-31T20:13:39.623Z,17.14
2022-12-31T20:16:11.093Z,17.26
2022-12-31T20:18:39.139Z,16.98
2022-12-31T20:21:10.567Z,17.45
2022-12-31T20:23:38.030Z,17.14
2022-12-31T20:26:05.756Z,17.41
2022-12-31T20:28:33.259Z,17.53
2022-12-31T20:31:06.143Z,17.18
2022-12-31T20:33:35.184Z,17.50
2022-12-31T20:36:03.102Z,17.06
2022-12-31T20:38:30.626Z,17.38
2022-12-31T20:41:03.650Z,17.87
2022-12-31T20:43:31.353Z,16.71
2022-12-31T20:45:58.952Z,17.10
2022-12-31T20:48:26.487Z,17.22
2022-12-31T20:50:59.043Z,18.25
2022-12-31T20:53:26.959Z,17.21
2022-12-31T20:55:54.555Z,17.10
2022-12-31T20:58:22.093Z,16.97
2022-12-31T21:00:50.325Z,17.50
2022-12-31T21:03:53.821Z,17.24
2022-12-31T21:06:07.907Z,17.50
2022-12-31T21:08:35.693Z,17.24
2022-12-31T21:11:03.493Z,16.97
2022-12-31T21:13:30.960Z,17.18
2022-12-31T21:15:58.537Z,16.93
2022-12-31T21:18:26.584Z,16.83
2022-12-31T21:20:54.033Z,17.25
2022-12-31T21:23:22.895Z,17.59
2022-12-31T21:25:50.506Z,17.07
2022-12-31T21:28:18.009Z,17.49
2022-12-31T21:30:45.561Z,17.22
2022-12-31T21:33:13.043Z,17.16
2022-12-31T21:35:44.555Z,17.58
2022-12-31T21:38:14.261Z,16.89
2022-12-31T21:40:43.316Z,16.87
2022-12-31T21:43:10.916Z,17.38
2022-12-31T21:45:38.714Z,17.21
2022-12-31T21:48:07.042Z,17.02
2022-12-31T21:50:35.014Z,17.40
2022-12-31T21:53:02.701Z,17.49
2022-12-31T21:55:30.116Z,17.11
2022-12-31T21:58:25.186Z,16.67
2022-12-31T22:00:46.551Z,17.59
2022-12-31T22:03:14.141Z,17.17
2022-12-31T22:05:48.285Z,16.97
2022-12-31T22:08:15.903Z,17.31
2022-12-31T22:10:51.962Z,17.80
2022-12-31T22:13:22.123Z,17.04
2022-12-31T22:15:55.406Z,17.32
2022-12-31T22:18:27.638Z,17.13
2022-12-31T22:21:02.143Z,17.12
2022-12-31T22:23:30.579Z,17.34
2022-12-31T22:25:58.121Z,17.23
2022-12-31T22:28:37.950Z,17.01
2022-12-31T22:31:06.882Z,16.63
2022-12-31T22:33:34.429Z,17.54
2022-12-31T22:36:04.060Z,16.82
2022-12-31T22:38:32.137Z,17.09
2022-12-31T22:41:07.364Z,17.31
2022-12-31T22:43:38.051Z,17.02
2022-12-31T22:46:10.194Z,17.01
2022-12-31T22:48:37.857Z,16.72
2022-12-31T22:51:06.268Z,17.19
2022-12-31T22:53:33.899Z,17.03
2022-12-31T22:56:01.840Z,16.69
2022-12-31T22:58:29.430Z,17.43
2022-12-31T23:00:58.490Z,16.92
2022-12-31T23:03:26.248Z,17.00
2022-12-31T23:05:53.787Z,17.24
2022-12-31T23:08:23.756Z,16.89
2022-12-31T23:10:54.145Z,17.34
2022-12-31T23:13:21.335Z,17.59
2022-12-31T23:15:48.944Z,17.41
2022-12-31T23:18:18.131Z,17.08
2022-12-31T23:20:46.174Z,17.59
2022-12-31T23:23:16.471Z,17.13
2022-12-31T23:25:46.622Z,17.19
2022-12-31T23:28:15.788Z,17.06
2022-12-31T23:30:43.834Z,16.86
2022-12-31T23:33:15.427Z,16.96
2022-12-31T23:35:44.757Z,17.16
2022-12-31T23:38:12.914Z,17.31
2022-12-31T23:40:40.518Z,16.84
2022-12-31T23:43:09.144Z,17.01
2022-12-31T23:45:37.188Z,17.24
2022-12-31T23:48:05.501Z,17.08
2022-12-31T23:50:33.176Z,16.78
2022-12-31T23:53:02.142Z,17.35
2022-12-31T23:55:29.790Z,16.71
2022-12-31T23:57:57.833Z,17.21
